This is the latest recevied weather packets stored in our database for station/object F6BIJ-13. If no packets are shown the sender has not sent any weather packets the latest 10 day(s).
| Time | Temp. | Humidity | Pressure | Rain* | Wind** | Luminosity | Snow |
|---|---|---|---|---|---|---|---|
| 1777464397 | 20.56° C | 62% | 1016.3 hPa | 0 mm | - | - | - |
| 1777463677 | 20.56° C | 61% | 1016.5 hPa | 0 mm | - | - | - |
| 1777462597 | 19.44° C | 68% | 1016.7 hPa | 0 mm | - | - | - |
| 1777462236 | 20° C | 70% | 1016.6 hPa | 0 mm | - | - | - |
| 1777461877 | 19.44° C | 68% | 1016.7 hPa | 0 mm | - | - | - |
| 1777461516 | 19.44° C | 65% | 1016.8 hPa | 0 mm | - | - | - |
| 1777461157 | 18.89° C | 69% | 1016.8 hPa | 0 mm | - | - | - |
| 1777460796 | 19.44° C | 69% | 1016.8 hPa | 0 mm | - | - | - |
| 1777459717 | 20° C | 65% | 1016.9 hPa | 0 mm | - | - | - |
| 1777459357 | 18.33° C | 73% | 1017 hPa | 0 mm | - | - | - |
| 1777458996 | 18.33° C | 70% | 1017 hPa | 0 mm | - | - | - |
| 1777458637 | 18.33° C | 72% | 1017.2 hPa | 0 mm | - | - | - |
| 1777457917 | 17.78° C | 72% | 1017.1 hPa | 0 mm | - | - | - |
| 1777457556 | 17.22° C | 70% | 1017.1 hPa | 0 mm | - | - | - |
| 1777457196 | 17.78° C | 70% | 1017.1 hPa | 0 mm | - | - | - |
| 1777456477 | 17.22° C | 71% | 1017.1 hPa | 0 mm | - | - | - |
| 1777455397 | 17.78° C | 71% | 1017.1 hPa | 0 mm | - | - | - |
| 1777455037 | 18.33° C | 75% | 1017.1 hPa | 0 mm | - | - | - |
| 1777454677 | 16.67° C | 76% | 1017.2 hPa | 0 mm | - | - | - |
| 1777454316 | 17.22° C | 75% | 1017.2 hPa | 0 mm | - | - | - |
| 1777453956 | 16.11° C | 77% | 1017.1 hPa | 0 mm | - | - | - |
| 1777453597 | 16.67° C | 78% | 1017.1 hPa | 0 mm | - | - | - |
| 1777453237 | 17.22° C | 74% | 1017.1 hPa | 0 mm | - | - | - |
| 1777452877 | 16.67° C | 79% | 1017.1 hPa | 0 mm | - | - | - |
| 1777452517 | 16.67° C | 77% | 1017.1 hPa | 0 mm | - | - | - |
* Rain latest 24 hours (hover to see other rain measurements)
** Current wind speed in m/s (hover to see current wind gust speed)